createdAt,value
2018-04-02T00:01:25.701Z,7.40
2018-04-02T00:03:51.933Z,7.40
2018-04-02T00:06:18.174Z,7.40
2018-04-02T00:08:45.242Z,7.40
2018-04-02T00:11:11.542Z,7.40
2018-04-02T00:13:37.819Z,7.50
2018-04-02T00:16:04.053Z,7.40
2018-04-02T00:18:30.321Z,7.40
2018-04-02T00:20:56.557Z,7.30
2018-04-02T00:23:22.881Z,7.30
2018-04-02T00:25:49.837Z,7.20
2018-04-02T00:28:16.130Z,7.20
2018-04-02T00:30:42.378Z,7.20
2018-04-02T00:33:08.665Z,7.10
2018-04-02T00:35:34.897Z,7.20
2018-04-02T00:38:01.166Z,7.00
2018-04-02T00:40:27.376Z,7.10
2018-04-02T00:42:53.598Z,7.10
2018-04-02T00:45:20.570Z,7.00
2018-04-02T00:47:47.537Z,7.00
2018-04-02T00:50:14.494Z,7.00
2018-04-02T00:52:40.745Z,6.90
2018-04-02T00:55:06.977Z,7.00
2018-04-02T00:57:33.951Z,7.00
2018-04-02T01:00:00.180Z,7.00
2018-04-02T01:02:26.406Z,7.00
2018-04-02T01:04:52.650Z,7.10
2018-04-02T01:07:19.629Z,7.00
2018-04-02T01:09:48.342Z,7.00
2018-04-02T01:12:14.614Z,7.10
2018-04-02T01:14:40.828Z,7.00
2018-04-02T01:17:07.218Z,7.00
2018-04-02T01:19:33.449Z,7.10
2018-04-02T01:22:00.430Z,7.10
2018-04-02T01:24:27.405Z,7.00
2018-04-02T01:26:53.637Z,7.00
2018-04-02T01:29:20.623Z,7.00
2018-04-02T01:31:46.842Z,7.00
2018-04-02T01:34:13.835Z,6.90
2018-04-02T01:36:40.063Z,6.90
2018-04-02T01:39:06.323Z,6.90
2018-04-02T01:41:32.582Z,6.80
2018-04-02T01:43:58.888Z,6.70
2018-04-02T01:46:25.126Z,6.70
2018-04-02T01:48:51.346Z,6.60
2018-04-02T01:51:18.309Z,6.40
2018-04-02T01:53:44.583Z,6.40
2018-04-02T01:56:10.838Z,6.40
2018-04-02T01:58:37.085Z,6.40
2018-04-02T02:01:03.338Z,6.30
2018-04-02T02:03:30.173Z,6.30
2018-04-02T02:05:57.206Z,6.20
2018-04-02T02:08:23.426Z,6.20
2018-04-02T02:10:50.469Z,6.20
2018-04-02T02:13:16.813Z,6.20
2018-04-02T02:15:43.029Z,6.10
2018-04-02T02:18:09.273Z,6.10
2018-04-02T02:20:35.544Z,6.00
2018-04-02T02:23:02.537Z,5.60
2018-04-02T02:25:28.812Z,5.60
2018-04-02T02:27:55.045Z,5.70
2018-04-02T02:30:21.279Z,5.70
2018-04-02T02:32:47.689Z,5.70
2018-04-02T02:35:13.936Z,5.70
2018-04-02T02:37:40.181Z,5.60
2018-04-02T02:40:06.425Z,5.60
2018-04-02T02:42:32.666Z,5.60
2018-04-02T02:44:58.890Z,5.50
2018-04-02T02:47:25.648Z,5.40
2018-04-02T02:49:51.877Z,5.30
2018-04-02T02:52:18.846Z,5.20
2018-04-02T02:54:45.091Z,5.20
2018-04-02T02:57:11.418Z,5.00
2018-04-02T02:59:37.687Z,5.00
2018-04-02T03:02:03.963Z,5.00
2018-04-02T03:04:30.215Z,5.00
2018-04-02T03:06:57.210Z,5.10
2018-04-02T03:09:24.159Z,5.10
2018-04-02T03:11:50.414Z,5.10
2018-04-02T03:14:16.777Z,5.00
2018-04-02T03:16:43.023Z,5.00
2018-04-02T03:19:09.285Z,5.10
2018-04-02T03:21:35.548Z,5.10
2018-04-02T03:24:01.770Z,5.00
2018-04-02T03:26:28.790Z,5.10
2018-04-02T03:28:55.044Z,5.10
2018-04-02T03:31:21.294Z,5.20
2018-04-02T03:33:47.533Z,5.20
2018-04-02T03:36:13.810Z,5.10
2018-04-02T03:38:40.818Z,5.20
2018-04-02T03:41:07.098Z,5.20
2018-04-02T03:43:33.353Z,5.20
2018-04-02T03:46:00.329Z,5.20
2018-04-02T03:48:28.533Z,5.20
2018-04-02T03:50:54.793Z,5.20
2018-04-02T03:53:21.054Z,5.10
2018-04-02T03:55:47.341Z,5.10
2018-04-02T03:58:14.309Z,4.90
2018-04-02T04:00:40.552Z,5.00
2018-04-02T04:03:06.819Z,4.80
2018-04-02T04:05:33.053Z,4.70
2018-04-02T04:07:59.281Z,4.90
2018-04-02T04:10:26.754Z,5.00
2018-04-02T04:12:53.133Z,5.10
2018-04-02T04:15:19.302Z,5.10
2018-04-02T04:17:46.282Z,5.30
2018-04-02T04:20:12.543Z,5.20
2018-04-02T04:22:38.774Z,5.30
2018-04-02T04:25:05.037Z,5.40
2018-04-02T04:27:31.376Z,5.40
2018-04-02T04:29:57.618Z,5.50
2018-04-02T04:32:23.878Z,5.50
2018-04-02T04:34:50.109Z,5.60
2018-04-02T04:37:17.835Z,5.50
2018-04-02T04:39:45.269Z,5.50
2018-04-02T04:42:11.506Z,5.60
2018-04-02T04:44:38.510Z,5.60
2018-04-02T04:47:04.766Z,5.60
2018-04-02T04:49:31.029Z,5.70
2018-04-02T04:51:57.257Z,5.60
2018-04-02T04:54:23.506Z,5.60
2018-04-02T04:56:49.774Z,5.60
2018-04-02T04:59:16.018Z,5.60
2018-04-02T05:01:43.022Z,5.40
2018-04-02T05:04:11.801Z,5.40
2018-04-02T05:06:38.779Z,5.40
2018-04-02T05:09:05.741Z,5.40
2018-04-02T05:11:31.993Z,5.30
2018-04-02T05:13:58.194Z,5.30
2018-04-02T05:16:24.446Z,5.30
2018-04-02T05:18:53.579Z,5.20
2018-04-02T05:21:19.846Z,5.10
2018-04-02T05:23:46.837Z,5.30
2018-04-02T05:26:13.845Z,5.30
2018-04-02T05:28:40.073Z,5.30
2018-04-02T05:31:06.310Z,5.40
2018-04-02T05:33:32.633Z,5.30
2018-04-02T05:35:58.883Z,5.40
2018-04-02T05:38:25.138Z,5.40
2018-04-02T05:40:51.366Z,5.40
2018-04-02T05:43:18.325Z,5.50
2018-04-02T05:45:44.565Z,5.50
2018-04-02T05:48:10.769Z,5.50
2018-04-02T05:50:37.018Z,5.50
2018-04-02T05:53:03.443Z,5.60
2018-04-02T05:55:29.678Z,5.70
2018-04-02T05:57:55.914Z,5.60
2018-04-02T06:00:22.161Z,5.60
2018-04-02T06:02:48.414Z,5.60
2018-04-02T06:05:15.413Z,5.40
2018-04-02T06:07:43.647Z,5.40
2018-04-02T06:10:10.614Z,5.50
2018-04-02T06:12:36.893Z,5.50
2018-04-02T06:15:03.162Z,5.70
2018-04-02T06:17:29.426Z,5.90
2018-04-02T06:19:57.072Z,6.20
2018-04-02T06:22:23.380Z,6.40
2018-04-02T06:24:49.575Z,6.60
2018-04-02T06:27:16.671Z,6.60
2018-04-02T06:29:43.707Z,6.80
2018-04-02T06:32:10.027Z,6.80
2018-04-02T06:34:36.329Z,6.70
2018-04-02T06:37:02.717Z,6.80
2018-04-02T06:39:28.866Z,6.70
2018-04-02T06:41:55.131Z,6.70
2018-04-02T06:44:21.347Z,6.80
2018-04-02T06:46:47.595Z,6.90
2018-04-02T06:49:13.831Z,6.90
2018-04-02T06:51:40.050Z,7.00
2018-04-02T06:54:06.368Z,7.00
2018-04-02T06:56:33.273Z,7.00
2018-04-02T06:58:59.561Z,6.90
2018-04-02T07:01:25.838Z,7.20
2018-04-02T07:03:52.104Z,7.00
2018-04-02T07:06:18.358Z,7.10
2018-04-02T07:08:45.387Z,7.20
2018-04-02T07:11:11.602Z,7.10
2018-04-02T07:13:37.850Z,7.20
2018-04-02T07:16:04.073Z,7.30
2018-04-02T07:18:30.329Z,7.30
2018-04-02T07:20:56.561Z,7.40
2018-04-02T07:23:23.870Z,9.10
2018-04-02T07:25:50.174Z,9.10
2018-04-02T07:28:16.633Z,10.00
2018-04-02T07:30:42.901Z,10.10
2018-04-02T07:33:09.158Z,9.70
2018-04-02T07:35:35.461Z,10.10
2018-04-02T07:38:01.742Z,10.00
2018-04-02T07:40:27.962Z,9.70
2018-04-02T07:42:54.208Z,9.60
2018-04-02T07:45:21.101Z,9.70
2018-04-02T07:47:47.338Z,9.50
2018-04-02T07:50:13.553Z,9.30
2018-04-02T07:52:39.776Z,9.60
2018-04-02T07:55:05.993Z,9.80
2018-04-02T07:57:33.001Z,9.90
2018-04-02T08:00:00.128Z,9.80
2018-04-02T08:02:26.405Z,9.70
2018-04-02T08:04:52.830Z,9.80
2018-04-02T08:07:19.106Z,9.90
2018-04-02T08:09:45.328Z,9.60
2018-04-02T08:12:11.640Z,9.80
2018-04-02T08:14:38.579Z,10.40
2018-04-02T08:17:04.891Z,10.30
2018-04-02T08:19:31.180Z,10.10
2018-04-02T08:21:57.449Z,10.10
2018-04-02T08:24:23.705Z,9.90
2018-04-02T08:26:49.997Z,10.10
2018-04-02T08:29:16.322Z,10.40
2018-04-02T08:31:47.042Z,10.70
2018-04-02T08:34:13.297Z,10.90
2018-04-02T08:36:39.505Z,10.90
2018-04-02T08:39:05.778Z,11.10
2018-04-02T08:41:32.409Z,11.10
2018-04-02T08:43:59.477Z,11.10
2018-04-02T08:46:25.717Z,11.10
2018-04-02T08:48:51.952Z,11.00
2018-04-02T08:51:18.225Z,10.80
2018-04-02T08:53:44.470Z,10.90
2018-04-02T08:56:10.710Z,11.40
2018-04-02T08:58:37.694Z,11.60
2018-04-02T09:01:03.925Z,11.60
2018-04-02T09:03:30.172Z,11.50
2018-04-02T09:05:56.434Z,11.20
2018-04-02T09:08:22.697Z,11.50
2018-04-02T09:10:48.939Z,11.80
2018-04-02T09:13:15.189Z,11.80
2018-04-02T09:15:41.476Z,11.50
2018-04-02T09:18:07.714Z,11.70
2018-04-02T09:20:33.980Z,11.80
2018-04-02T09:23:00.183Z,11.80
2018-04-02T09:25:26.434Z,12.00
2018-04-02T09:27:53.405Z,11.90
2018-04-02T09:30:19.649Z,11.90
2018-04-02T09:32:45.926Z,11.90
2018-04-02T09:35:12.195Z,12.10
2018-04-02T09:37:38.450Z,12.20
2018-04-02T09:40:04.775Z,12.30
2018-04-02T09:42:31.041Z,12.30
2018-04-02T09:44:57.432Z,12.30
2018-04-02T09:47:24.439Z,11.90
2018-04-02T09:49:51.403Z,12.00
2018-04-02T09:52:17.649Z,12.00
2018-04-02T09:54:44.727Z,11.60
2018-04-02T09:57:10.976Z,11.60
2018-04-02T09:59:37.266Z,11.70
2018-04-02T10:02:09.762Z,11.90
2018-04-02T10:04:36.066Z,11.80
2018-04-02T10:07:03.048Z,12.00
2018-04-02T10:09:29.328Z,12.00
2018-04-02T10:11:55.595Z,12.30
2018-04-02T10:14:21.851Z,12.60
2018-04-02T10:16:49.102Z,12.70
2018-04-02T10:19:16.105Z,13.00
2018-04-02T10:21:42.359Z,13.00
2018-04-02T10:24:08.631Z,13.10
2018-04-02T10:26:34.905Z,13.00
2018-04-02T10:29:01.182Z,13.10
2018-04-02T10:31:27.446Z,13.20
2018-04-02T10:33:53.699Z,13.40
2018-04-02T10:36:19.935Z,13.40
2018-04-02T10:38:46.198Z,13.30
2018-04-02T10:41:13.201Z,12.90
2018-04-02T10:43:39.450Z,12.90
2018-04-02T10:46:05.702Z,13.00
2018-04-02T10:48:32.052Z,13.00
2018-04-02T10:50:59.835Z,13.10
2018-04-02T10:53:26.114Z,13.10
2018-04-02T10:55:52.333Z,13.00
2018-04-02T10:58:19.353Z,12.90
2018-04-02T11:00:46.297Z,13.00
2018-04-02T11:03:12.550Z,12.90
2018-04-02T11:05:38.799Z,12.90
2018-04-02T11:08:05.054Z,13.20
2018-04-02T11:10:31.353Z,13.50
2018-04-02T11:12:57.671Z,13.80
2018-04-02T11:15:24.678Z,14.00
2018-04-02T11:17:50.930Z,14.00
2018-04-02T11:20:17.221Z,13.90
2018-04-02T11:22:43.494Z,13.60
2018-04-02T11:25:09.767Z,13.50
2018-04-02T11:27:36.022Z,13.40
2018-04-02T11:30:02.299Z,13.40
2018-04-02T11:32:29.353Z,13.60
2018-04-02T11:35:00.178Z,13.60
2018-04-02T11:37:26.437Z,13.50
2018-04-02T11:39:52.708Z,13.40
2018-04-02T11:42:19.690Z,13.40
2018-04-02T11:44:46.019Z,13.40
2018-04-02T11:47:17.175Z,13.60
2018-04-02T11:49:43.466Z,13.50
2018-04-02T11:52:09.707Z,13.60
2018-04-02T11:54:35.986Z,13.30
2018-04-02T11:57:02.311Z,13.20
2018-04-02T11:59:28.561Z,13.10
2018-04-02T12:01:56.575Z,13.00
2018-04-02T12:04:23.565Z,13.00
2018-04-02T12:06:49.843Z,13.00
2018-04-02T12:09:16.873Z,13.40
2018-04-02T12:11:43.139Z,13.40
2018-04-02T12:14:09.477Z,13.40
2018-04-02T12:16:36.546Z,13.60
2018-04-02T12:19:06.501Z,13.60
2018-04-02T12:21:32.846Z,13.70
2018-04-02T12:23:59.167Z,13.60
2018-04-02T12:26:25.411Z,13.50
2018-04-02T12:28:51.653Z,13.80
2018-04-02T12:31:18.038Z,13.90
2018-04-02T12:33:45.009Z,14.20
2018-04-02T12:36:11.233Z,14.20
2018-04-02T12:38:37.463Z,14.80
2018-04-02T12:41:04.461Z,15.10
2018-04-02T12:43:30.729Z,15.10
2018-04-02T12:45:57.012Z,15.10
2018-04-02T12:48:23.255Z,14.90
2018-04-02T12:50:49.513Z,14.80
2018-04-02T12:53:16.554Z,14.80
2018-04-02T12:55:42.819Z,14.80
2018-04-02T12:58:09.109Z,14.90
2018-04-02T13:00:35.322Z,15.20
2018-04-02T13:03:01.588Z,15.70
2018-04-02T13:05:27.832Z,16.10
2018-04-02T13:07:57.136Z,16.20
2018-04-02T13:10:25.286Z,16.10
2018-04-02T13:12:51.561Z,16.00
2018-04-02T13:15:17.901Z,15.70
2018-04-02T13:17:44.152Z,15.60
2018-04-02T13:20:10.382Z,15.60
2018-04-02T13:22:36.667Z,15.40
2018-04-02T13:25:02.938Z,15.40
2018-04-02T13:27:29.166Z,15.80
2018-04-02T13:29:55.698Z,15.90
2018-04-02T13:32:22.750Z,15.60
2018-04-02T13:34:49.069Z,15.60
2018-04-02T13:37:15.413Z,15.10
2018-04-02T13:39:42.192Z,14.90
2018-04-02T13:42:08.498Z,14.70
2018-04-02T13:44:34.717Z,14.60
2018-04-02T13:47:01.007Z,14.50
2018-04-02T13:49:28.049Z,14.40
2018-04-02T13:51:55.115Z,14.50
2018-04-02T13:54:21.550Z,14.50
2018-04-02T15:18:44.170Z,14.30
2018-04-02T15:21:13.777Z,14.10
2018-04-02T15:23:42.821Z,14.10
2018-04-02T15:26:09.842Z,14.20
2018-04-02T15:28:36.074Z,14.20
2018-04-02T15:31:02.332Z,14.30
2018-04-02T15:33:28.587Z,14.20
2018-04-02T15:35:54.856Z,14.20
2018-04-02T15:38:21.090Z,14.00
2018-04-02T15:40:47.358Z,14.10
2018-04-02T15:43:13.572Z,13.90
2018-04-02T15:45:39.875Z,13.70
2018-04-02T15:48:06.994Z,13.80
2018-04-02T15:50:33.363Z,13.80
2018-04-02T15:52:59.691Z,13.90
2018-04-02T15:55:26.745Z,13.70
2018-04-02T15:57:52.969Z,13.70
2018-04-02T16:00:19.258Z,13.70
2018-04-02T16:02:45.537Z,13.60
2018-04-02T16:05:11.862Z,13.60
2018-04-02T16:07:40.266Z,13.50
2018-04-02T16:10:06.551Z,13.40
2018-04-02T16:12:33.030Z,13.50
2018-04-02T16:14:59.289Z,13.60
2018-04-02T16:17:25.554Z,13.60
2018-04-02T16:19:52.568Z,13.70
2018-04-02T16:22:19.534Z,13.70
2018-04-02T16:24:45.789Z,13.70
2018-04-02T16:27:12.056Z,13.80
2018-04-02T16:29:38.326Z,13.80
2018-04-02T16:32:04.553Z,13.90
2018-04-02T16:34:30.785Z,13.90
2018-04-02T16:36:57.032Z,13.90
2018-04-02T16:39:23.245Z,13.90
2018-04-02T16:41:49.477Z,13.90
2018-04-02T16:44:15.706Z,13.80
2018-04-02T16:46:41.929Z,14.00
2018-04-02T16:49:09.089Z,14.00
2018-04-02T16:51:36.154Z,14.00
2018-04-02T16:54:02.409Z,14.00
2018-04-02T16:56:28.672Z,14.10
2018-04-02T16:58:54.954Z,14.00
2018-04-02T17:01:21.177Z,14.10
2018-04-02T17:03:47.414Z,14.10
2018-04-02T17:06:13.791Z,14.10
2018-04-02T17:08:40.781Z,14.10
2018-04-02T17:11:07.021Z,14.10
2018-04-02T17:13:33.321Z,14.00
2018-04-02T17:15:59.569Z,13.90
2018-04-02T17:18:26.562Z,13.90
2018-04-02T17:20:52.853Z,13.80
2018-04-02T17:23:19.107Z,14.00
2018-04-02T17:25:45.438Z,14.00
2018-04-02T17:28:12.509Z,13.70
2018-04-02T17:30:38.681Z,13.70
2018-04-02T17:33:05.010Z,13.70
2018-04-02T17:35:31.988Z,13.70
2018-04-02T17:37:58.245Z,13.60
2018-04-02T17:40:24.510Z,13.70
2018-04-02T17:42:50.717Z,13.50
2018-04-02T17:45:16.967Z,13.40
2018-04-02T17:47:43.199Z,13.40
2018-04-02T17:50:09.425Z,13.40
2018-04-02T17:52:35.664Z,13.30
2018-04-02T17:55:02.773Z,13.30
2018-04-02T17:57:29.003Z,13.20
2018-04-02T17:59:55.274Z,13.30
2018-04-02T18:02:22.326Z,13.30
2018-04-02T18:04:49.337Z,13.20
2018-04-02T18:07:16.316Z,13.20
2018-04-02T18:09:42.733Z,13.10
2018-04-02T18:12:09.057Z,13.20
2018-04-02T18:14:36.118Z,13.30
2018-04-02T18:17:02.470Z,13.30
2018-04-02T18:19:29.107Z,13.30
2018-04-02T18:21:55.438Z,13.30
2018-04-02T18:24:22.483Z,13.20
2018-04-02T18:26:55.954Z,13.20
2018-04-02T18:29:22.242Z,13.20
2018-04-02T18:31:49.241Z,13.10
2018-04-02T18:34:15.498Z,13.10
2018-04-02T18:36:41.724Z,13.10
2018-04-02T18:39:09.046Z,13.00
2018-04-02T18:41:35.277Z,13.00
2018-04-02T18:44:01.695Z,13.10
2018-04-02T18:46:27.986Z,13.00
2018-04-02T18:48:54.993Z,12.90
2018-04-02T18:51:21.293Z,12.90
2018-04-02T18:53:48.259Z,13.00
2018-04-02T18:56:14.527Z,13.00
2018-04-02T18:58:40.744Z,13.00
2018-04-02T19:01:08.168Z,12.90
2018-04-02T19:03:34.471Z,13.00
2018-04-02T19:06:00.943Z,12.90
2018-04-02T19:08:27.194Z,13.10
2018-04-02T19:10:53.461Z,13.10
2018-04-02T19:13:19.727Z,13.00
2018-04-02T19:15:46.011Z,13.00
2018-04-02T19:18:12.276Z,12.90
2018-04-02T19:20:38.605Z,13.00
2018-04-02T19:23:05.609Z,13.00
2018-04-02T19:25:31.846Z,12.90
2018-04-02T19:27:58.118Z,13.00
2018-04-02T19:30:24.339Z,13.00
2018-04-02T19:32:50.586Z,13.10
2018-04-02T19:35:16.849Z,13.10
2018-04-02T19:37:43.098Z,13.20
2018-04-02T19:40:09.389Z,13.10
2018-04-02T19:42:36.402Z,12.90
2018-04-02T19:45:02.679Z,12.90
2018-04-02T19:47:29.699Z,13.00
2018-04-02T19:49:56.006Z,13.00
2018-04-02T19:52:24.736Z,12.80
2018-04-02T19:54:50.961Z,12.80
2018-04-02T19:57:18.276Z,12.90
2018-04-02T19:59:44.865Z,12.80
2018-04-02T20:02:11.114Z,12.90
2018-04-02T20:04:37.444Z,12.70
2018-04-02T20:07:03.702Z,12.60
2018-04-02T20:09:30.053Z,12.70
2018-04-02T20:11:56.604Z,12.60
2018-04-02T20:14:22.833Z,12.50
2018-04-02T20:16:49.227Z,12.70
2018-04-02T20:19:16.230Z,12.60
2018-04-02T20:21:42.554Z,12.60
2018-04-02T20:24:09.547Z,12.60
2018-04-02T20:26:35.818Z,12.60
2018-04-02T20:29:02.073Z,12.80
2018-04-02T20:31:29.097Z,12.80
2018-04-02T20:33:55.350Z,12.70
2018-04-02T20:36:21.638Z,12.80
2018-04-02T20:38:48.664Z,12.70
2018-04-02T20:41:14.901Z,12.70
2018-04-02T20:43:41.262Z,12.70
2018-04-02T20:46:08.446Z,12.60
2018-04-02T20:48:35.497Z,12.70
2018-04-02T20:51:02.481Z,12.80
2018-04-02T20:53:28.737Z,12.80
2018-04-02T20:55:54.971Z,12.80
2018-04-02T20:58:21.201Z,12.80
2018-04-02T21:00:47.426Z,12.80
2018-04-02T21:03:14.410Z,12.60
2018-04-02T21:05:40.682Z,12.60
2018-04-02T21:08:06.921Z,12.60
2018-04-02T21:10:33.211Z,12.60
2018-04-02T21:12:59.456Z,12.70
2018-04-02T21:15:25.737Z,12.80
2018-04-02T21:17:52.046Z,12.60
2018-04-02T21:20:19.045Z,12.60
2018-04-02T21:22:45.330Z,12.60
2018-04-02T21:25:11.597Z,12.50
2018-04-02T21:27:37.855Z,12.60
2018-04-02T21:30:04.107Z,12.50
2018-04-02T21:32:33.673Z,12.40
2018-04-02T21:35:00.174Z,12.40
2018-04-02T21:37:26.403Z,12.30
2018-04-02T21:39:52.649Z,12.30
2018-04-02T21:42:18.929Z,12.10
2018-04-02T21:44:45.921Z,11.80
2018-04-02T21:47:12.142Z,11.80
2018-04-02T21:49:39.114Z,11.70
2018-04-02T21:52:05.353Z,11.70
2018-04-02T21:54:31.613Z,11.80
2018-04-02T21:56:58.050Z,11.80
2018-04-02T21:59:24.277Z,11.80
2018-04-02T22:01:51.086Z,11.90
2018-04-02T22:04:17.338Z,11.90
2018-04-02T22:06:56.971Z,12.00
2018-04-02T22:09:23.208Z,12.00
2018-04-02T22:11:49.513Z,12.00
2018-04-02T22:14:15.979Z,12.00
2018-04-02T22:16:42.566Z,12.00
2018-04-02T22:19:08.794Z,12.10
2018-04-02T22:21:35.036Z,12.10
2018-04-02T22:24:01.285Z,12.10
2018-04-02T22:26:27.626Z,12.00
2018-04-02T22:28:53.844Z,12.00
2018-04-02T22:31:20.125Z,12.10
2018-04-02T22:33:47.105Z,12.10
2018-04-02T22:36:13.349Z,12.10
2018-04-02T22:38:39.599Z,12.10
2018-04-02T22:41:06.588Z,11.90
2018-04-02T22:43:34.329Z,11.80
2018-04-02T22:46:00.594Z,11.80
2018-04-02T22:48:26.829Z,11.70
2018-04-02T22:50:53.122Z,11.70
2018-04-02T22:53:19.706Z,11.60
2018-04-02T22:55:45.959Z,11.70
2018-04-02T22:58:12.191Z,11.60
2018-04-02T23:00:39.250Z,11.70
2018-04-02T23:03:05.554Z,11.70
2018-04-02T23:05:32.602Z,11.70
2018-04-02T23:07:58.826Z,11.70
2018-04-02T23:10:25.097Z,11.80
2018-04-02T23:12:52.186Z,11.70
2018-04-02T23:15:19.141Z,11.60
2018-04-02T23:17:45.451Z,11.60
2018-04-02T23:20:11.701Z,11.70
2018-04-02T23:22:51.097Z,11.80
2018-04-02T23:25:17.378Z,11.80
2018-04-02T23:27:43.635Z,11.60
2018-04-02T23:30:09.947Z,11.50
2018-04-02T23:32:36.305Z,11.50
2018-04-02T23:35:03.397Z,11.50
2018-04-02T23:37:29.689Z,11.40
2018-04-02T23:39:56.711Z,11.50
2018-04-02T23:42:22.941Z,11.50
2018-04-02T23:44:49.187Z,11.60
2018-04-02T23:47:15.429Z,11.70
2018-04-02T23:49:41.714Z,11.70
2018-04-02T23:52:07.988Z,11.80
2018-04-02T23:54:34.218Z,11.80
2018-04-02T23:57:00.457Z,11.90
2018-04-02T23:59:26.682Z,11.90
